createdAt,value
2023-05-02T00:00:10.587Z,100472.00
2023-05-02T00:02:38.854Z,100482.00
2023-05-02T00:05:08.188Z,100479.00
2023-05-02T00:07:40.344Z,100473.00
2023-05-02T00:10:09.253Z,100476.00
2023-05-02T00:12:37.553Z,100469.00
2023-05-02T00:15:06.330Z,100460.00
2023-05-02T00:17:34.614Z,100467.00
2023-05-02T00:20:04.710Z,100462.00
2023-05-02T00:22:33.099Z,100456.00
2023-05-02T00:25:01.377Z,100457.00
2023-05-02T00:27:32.217Z,100454.00
2023-05-02T00:30:01.473Z,100455.00
2023-05-02T00:32:30.567Z,100458.00
2023-05-02T00:34:58.950Z,100455.00
2023-05-02T00:37:30.376Z,100474.00
2023-05-02T00:39:59.413Z,100460.00
2023-05-02T00:42:31.823Z,100460.00
2023-05-02T00:45:00.426Z,100460.00
2023-05-02T00:47:28.936Z,100461.00
2023-05-02T00:49:58.190Z,100462.00
2023-05-02T00:52:27.070Z,100464.00
2023-05-02T00:54:55.391Z,100460.00
2023-05-02T00:57:23.884Z,100456.00
2023-05-02T00:59:52.450Z,100456.00
2023-05-02T01:02:49.589Z,100469.00
2023-05-02T01:05:29.165Z,100464.00
2023-05-02T01:08:12.674Z,100471.00
2023-05-02T01:10:55.989Z,100463.00
2023-05-02T01:13:30.510Z,100472.00
2023-05-02T01:16:00.868Z,100476.00
2023-05-02T01:18:33.316Z,100477.00
2023-05-02T01:21:11.306Z,100478.00
2023-05-02T01:24:13.265Z,100473.00
2023-05-02T01:26:46.588Z,100476.00
2023-05-02T01:29:15.854Z,100474.00
2023-05-02T01:31:47.047Z,100483.00
2023-05-02T01:34:15.183Z,100483.00
2023-05-02T01:36:45.837Z,100480.00
2023-05-02T01:39:23.282Z,100480.00
2023-05-02T01:41:52.689Z,100479.00
2023-05-02T01:44:24.796Z,100482.00
2023-05-02T01:46:54.733Z,100481.00
2023-05-02T01:49:25.068Z,100485.00
2023-05-02T01:51:53.702Z,100483.00
2023-05-02T01:54:23.937Z,100487.00
2023-05-02T01:56:53.165Z,100491.00
2023-05-02T01:59:24.490Z,100490.00
2023-05-02T02:01:52.960Z,100488.00
2023-05-02T02:04:22.391Z,100490.00
2023-05-02T02:06:58.925Z,100491.00
2023-05-02T02:09:27.213Z,100487.00
2023-05-02T02:12:17.054Z,100497.00
2023-05-02T02:14:49.342Z,100492.00
2023-05-02T02:17:27.471Z,100500.00
2023-05-02T02:19:57.976Z,100499.00
2023-05-02T02:22:29.006Z,100498.00
2023-05-02T02:24:59.508Z,100504.00
2023-05-02T02:27:31.570Z,100506.00
2023-05-02T02:30:00.608Z,100508.00
2023-05-02T02:32:28.952Z,100501.00
2023-05-02T02:34:57.084Z,100506.00
2023-05-02T02:37:31.895Z,100516.00
2023-05-02T02:40:20.330Z,100516.00
2023-05-02T02:43:30.324Z,100515.00
2023-05-02T02:46:23.578Z,100513.00
2023-05-02T02:49:07.402Z,100529.00
2023-05-02T02:52:12.651Z,100523.00
2023-05-02T02:54:53.381Z,100518.00
2023-05-02T02:57:44.378Z,100530.00
2023-05-02T03:00:19.096Z,100529.00
2023-05-02T03:02:48.484Z,100530.00
2023-05-02T03:05:17.009Z,100528.00
2023-05-02T03:07:45.320Z,100542.00
2023-05-02T03:10:13.666Z,100539.00
2023-05-02T03:12:42.239Z,100543.00
2023-05-02T03:15:15.259Z,100553.00
2023-05-02T03:17:45.407Z,100555.00
2023-05-02T03:20:13.650Z,100555.00
2023-05-02T03:22:41.742Z,100557.00
2023-05-02T03:25:10.302Z,100564.00
2023-05-02T03:27:43.833Z,100564.00
2023-05-02T03:30:13.556Z,100571.00
2023-05-02T03:32:41.654Z,100569.00
2023-05-02T03:35:10.008Z,100566.00
2023-05-02T03:37:43.309Z,100563.00
2023-05-02T03:40:11.974Z,100577.00
2023-05-02T03:42:42.536Z,100569.00
2023-05-02T03:45:23.207Z,100575.00
2023-05-02T03:47:53.456Z,100580.00
2023-05-02T03:50:22.038Z,100583.00
2023-05-02T03:52:52.323Z,100586.00
2023-05-02T03:55:30.259Z,100591.00
2023-05-02T03:57:59.121Z,100586.00
2023-05-02T04:00:27.214Z,100581.00
2023-05-02T04:03:29.334Z,100592.00
2023-05-02T04:05:59.809Z,100597.00
2023-05-02T04:08:28.052Z,100593.00
2023-05-02T04:11:00.429Z,100608.00
2023-05-02T04:13:29.857Z,100622.00
2023-05-02T04:15:59.974Z,100619.00
2023-05-02T04:18:32.025Z,100608.00
2023-05-02T04:21:01.450Z,100618.00
2023-05-02T04:23:29.929Z,100620.00
2023-05-02T04:26:01.671Z,100630.00
2023-05-02T04:28:38.536Z,100634.00
2023-05-02T04:31:06.902Z,100634.00
2023-05-02T04:33:35.116Z,100628.00
2023-05-02T04:36:04.128Z,100642.00
2023-05-02T04:38:33.768Z,100638.00
2023-05-02T04:41:09.169Z,100639.00
2023-05-02T04:43:46.358Z,100646.00
2023-05-02T04:46:18.687Z,100652.00
2023-05-02T04:48:47.761Z,100646.00
2023-05-02T04:51:17.143Z,100657.00
2023-05-02T04:53:49.048Z,100657.00
2023-05-02T04:56:17.292Z,100665.00
2023-05-02T04:58:45.680Z,100664.00
2023-05-02T05:01:16.871Z,100666.00
2023-05-02T05:03:46.695Z,100670.00
2023-05-02T05:06:16.972Z,100684.00
2023-05-02T05:08:49.560Z,100687.00
2023-05-02T05:11:18.038Z,100691.00
2023-05-02T05:13:46.602Z,100687.00
2023-05-02T05:16:16.010Z,100696.00
2023-05-02T05:18:45.045Z,100692.00
2023-05-02T05:21:15.720Z,100696.00
2023-05-02T05:23:46.402Z,100697.00
2023-05-02T05:26:19.608Z,100698.00
2023-05-02T05:28:50.910Z,100702.00
2023-05-02T05:31:21.011Z,100713.00
2023-05-02T05:33:53.563Z,100712.00
2023-05-02T05:36:23.880Z,100710.00
2023-05-02T05:38:52.660Z,100719.00
2023-05-02T05:41:22.461Z,100729.00
2023-05-02T05:43:56.951Z,100722.00
2023-05-02T05:46:30.455Z,100728.00
2023-05-02T05:48:59.544Z,100731.00
2023-05-02T05:51:29.187Z,100727.00
2023-05-02T05:54:00.339Z,100737.00
2023-05-02T05:56:29.826Z,100746.00
2023-05-02T05:59:13.097Z,100748.00
2023-05-02T06:01:42.154Z,100749.00
2023-05-02T06:04:10.673Z,100749.00
2023-05-02T06:06:42.951Z,100753.00
2023-05-02T06:09:12.199Z,100747.00
2023-05-02T06:11:40.466Z,100755.00
2023-05-02T06:14:09.388Z,100757.00
2023-05-02T06:16:37.752Z,100767.00
2023-05-02T06:19:06.889Z,100769.00
2023-05-02T06:21:36.679Z,100771.00
2023-05-02T06:24:05.338Z,100781.00
2023-05-02T06:26:33.664Z,100784.00
2023-05-02T06:29:02.591Z,100787.00
2023-05-02T06:31:30.804Z,100788.00
2023-05-02T06:33:59.026Z,100797.00
2023-05-02T06:36:27.948Z,100803.00
2023-05-02T06:38:56.511Z,100807.00
2023-05-02T06:41:24.846Z,100816.00
2023-05-02T06:43:53.178Z,100813.00
2023-05-02T06:46:21.395Z,100812.00
2023-05-02T06:48:49.753Z,100825.00
2023-05-02T06:51:19.652Z,100824.00
2023-05-02T06:53:47.621Z,100821.00
2023-05-02T06:56:16.103Z,100830.00
2023-05-02T06:58:44.704Z,100844.00
2023-05-02T07:01:13.507Z,100849.00
2023-05-02T07:03:42.194Z,100851.00
2023-05-02T07:06:10.610Z,100854.00
2023-05-02T07:08:47.353Z,100854.00
2023-05-02T07:11:15.484Z,100861.00
2023-05-02T07:13:43.919Z,100867.00
2023-05-02T07:16:12.288Z,100871.00
2023-05-02T07:18:40.480Z,100873.00
2023-05-02T07:21:08.864Z,100879.00
2023-05-02T07:23:36.935Z,100872.00
2023-05-02T07:26:08.360Z,100886.00
2023-05-02T07:28:36.630Z,100886.00
2023-05-02T07:31:06.418Z,100892.00
2023-05-02T07:33:34.545Z,100897.00
2023-05-02T07:36:03.788Z,100905.00
2023-05-02T07:38:31.940Z,100910.00
2023-05-02T07:41:01.128Z,100911.00
2023-05-02T07:43:30.865Z,100920.00
2023-05-02T07:45:59.257Z,100923.00
2023-05-02T07:48:28.132Z,100924.00
2023-05-02T07:50:57.337Z,100923.00
2023-05-02T07:53:25.510Z,100934.00
2023-05-02T07:55:53.849Z,100931.00
2023-05-02T07:58:22.780Z,100940.00
2023-05-02T08:00:51.262Z,100946.00
2023-05-02T08:03:19.985Z,100953.00
2023-05-02T08:05:49.388Z,100959.00
2023-05-02T08:08:18.080Z,100964.00
2023-05-02T08:10:46.433Z,100971.00
2023-05-02T08:13:14.708Z,100975.00
2023-05-02T08:15:43.241Z,100975.00
2023-05-02T08:18:12.689Z,100973.00
2023-05-02T08:20:41.377Z,100986.00
2023-05-02T08:23:09.865Z,100976.00
2023-05-02T08:25:38.471Z,100981.00
2023-05-02T08:28:06.853Z,100989.00
2023-05-02T08:30:37.897Z,100989.00
2023-05-02T08:33:06.754Z,100992.00
2023-05-02T08:35:35.544Z,100993.00
2023-05-02T08:38:04.574Z,101007.00
2023-05-02T08:40:42.020Z,101012.00
2023-05-02T08:43:13.229Z,101017.00
2023-05-02T08:45:43.881Z,101022.00
2023-05-02T08:48:15.212Z,101029.00
2023-05-02T08:50:44.742Z,101029.00
2023-05-02T08:53:15.169Z,101036.00
2023-05-02T08:55:44.440Z,101045.00
2023-05-02T08:58:14.123Z,101047.00
2023-05-02T09:00:44.405Z,101046.00
2023-05-02T09:03:23.686Z,101047.00
2023-05-02T09:05:57.830Z,101057.00
2023-05-02T09:08:26.542Z,101065.00
2023-05-02T09:10:54.824Z,101068.00
2023-05-02T09:13:43.466Z,101074.00
2023-05-02T09:16:13.638Z,101079.00
2023-05-02T09:18:44.433Z,101081.00
2023-05-02T09:21:23.642Z,101095.00
2023-05-02T09:23:55.940Z,101094.00
2023-05-02T09:26:32.048Z,101101.00
2023-05-02T09:29:05.400Z,101112.00
2023-05-02T09:34:12.676Z,101110.00
2023-05-02T09:36:48.530Z,101115.00
2023-05-02T09:39:27.372Z,101112.00
2023-05-02T09:41:55.773Z,101114.00
2023-05-02T09:44:30.244Z,101122.00
2023-05-02T09:47:04.985Z,101117.00
2023-05-02T09:49:46.966Z,101124.00
2023-05-02T09:52:18.675Z,101132.00
2023-05-02T09:54:47.554Z,101131.00
2023-05-02T09:57:16.418Z,101136.00
2023-05-02T10:00:01.753Z,101147.00
2023-05-02T10:02:43.691Z,101142.00
2023-05-02T10:05:16.970Z,101144.00
2023-05-02T10:07:46.653Z,101146.00
2023-05-02T10:10:17.894Z,101145.00
2023-05-02T10:12:46.845Z,101152.00
2023-05-02T10:15:15.836Z,101150.00
2023-05-02T10:17:49.395Z,101160.00
2023-05-02T10:20:28.641Z,101160.00
2023-05-02T10:23:02.196Z,101153.00
2023-05-02T10:25:31.242Z,101160.00
2023-05-02T10:27:59.943Z,101170.00
2023-05-02T10:30:28.338Z,101170.00
2023-05-02T10:33:00.556Z,101168.00
2023-05-02T10:35:29.343Z,101170.00
2023-05-02T10:37:58.720Z,101180.00
2023-05-02T10:40:27.680Z,101182.00
2023-05-02T10:42:56.181Z,101180.00
2023-05-02T10:45:37.565Z,101181.00
2023-05-02T10:48:22.698Z,101174.00
2023-05-02T10:50:51.954Z,101179.00
2023-05-02T10:53:31.503Z,101183.00
2023-05-02T10:56:21.464Z,101187.00
2023-05-02T10:58:51.224Z,101181.00
2023-05-02T11:01:33.133Z,101197.00
2023-05-02T11:04:04.293Z,101181.00
2023-05-02T11:06:38.163Z,101182.00
2023-05-02T11:09:21.442Z,101192.00
2023-05-02T11:11:54.586Z,101192.00
2023-05-02T11:14:31.696Z,101191.00
2023-05-02T11:17:05.903Z,101194.00
2023-05-02T11:19:46.545Z,101200.00
2023-05-02T11:22:30.266Z,101190.00
2023-05-02T11:24:59.603Z,101191.00
2023-05-02T11:27:34.276Z,101198.00
2023-05-02T11:30:07.257Z,101192.00
2023-05-02T11:32:52.456Z,101200.00
2023-05-02T11:35:27.847Z,101207.00
2023-05-02T11:37:56.829Z,101200.00
2023-05-02T11:40:26.003Z,101212.00
2023-05-02T11:42:54.562Z,101207.00
2023-05-02T11:45:24.238Z,101216.00
2023-05-02T11:47:52.717Z,101211.00
2023-05-02T11:50:21.329Z,101202.00
2023-05-02T11:52:49.406Z,101210.00
2023-05-02T11:55:18.368Z,101204.00
2023-05-02T11:57:49.772Z,101215.00
2023-05-02T12:00:18.807Z,101218.00
2023-05-02T12:02:49.305Z,101220.00
2023-05-02T12:05:32.087Z,101220.00
2023-05-02T12:08:03.944Z,101220.00
2023-05-02T12:10:42.379Z,101225.00
2023-05-02T12:13:11.902Z,101220.00
2023-05-02T12:15:40.343Z,101229.00
2023-05-02T12:18:08.927Z,101221.00
2023-05-02T12:20:39.058Z,101236.00
2023-05-02T12:23:08.674Z,101238.00
2023-05-02T12:25:41.570Z,101234.00
2023-05-02T12:28:11.187Z,101237.00
2023-05-02T12:30:41.883Z,101238.00
2023-05-02T12:33:13.858Z,101246.00
2023-05-02T12:35:42.773Z,101240.00
2023-05-02T12:38:16.096Z,101241.00
2023-05-02T12:40:49.981Z,101242.00
2023-05-02T12:43:18.550Z,101236.00
2023-05-02T12:45:48.800Z,101245.00
2023-05-02T12:48:25.280Z,101249.00
2023-05-02T12:50:55.896Z,101247.00
2023-05-02T12:53:42.067Z,101257.00
2023-05-02T12:56:11.574Z,101262.00
2023-05-02T12:58:47.677Z,101275.00
2023-05-02T13:01:19.394Z,101266.00
2023-05-02T13:03:48.532Z,101277.00
2023-05-02T13:06:16.946Z,101278.00
2023-05-02T13:08:45.481Z,101281.00
2023-05-02T13:11:14.472Z,101276.00
2023-05-02T13:13:44.471Z,101278.00
2023-05-02T13:16:13.099Z,101289.00
2023-05-02T13:18:41.830Z,101290.00
2023-05-02T13:21:10.367Z,101296.00
2023-05-02T13:23:40.130Z,101296.00
2023-05-02T13:26:08.348Z,101289.00
2023-05-02T13:28:37.746Z,101291.00
2023-05-02T13:31:06.759Z,101288.00
2023-05-02T13:33:36.164Z,101296.00
2023-05-02T13:36:04.833Z,101299.00
2023-05-02T13:38:33.043Z,101295.00
2023-05-02T13:41:01.411Z,101300.00
2023-05-02T13:43:29.795Z,101304.00
2023-05-02T13:46:00.473Z,101302.00
2023-05-02T13:48:29.309Z,101303.00
2023-05-02T13:50:57.627Z,101293.00
2023-05-02T13:53:25.749Z,101308.00
2023-05-02T13:55:57.096Z,101298.00
2023-05-02T13:58:25.001Z,101298.00
2023-05-02T14:00:53.181Z,101301.00
2023-05-02T14:03:21.344Z,101297.00
2023-05-02T14:05:49.951Z,101293.00
2023-05-02T14:08:19.440Z,101305.00
2023-05-02T14:10:47.548Z,101304.00
2023-05-02T14:13:15.714Z,101300.00
2023-05-02T14:15:44.276Z,101306.00
2023-05-02T14:18:12.140Z,101306.00
2023-05-02T14:20:40.817Z,101310.00
2023-05-02T14:23:09.063Z,101307.00
2023-05-02T14:25:38.242Z,101309.00
2023-05-02T14:28:06.951Z,101304.00
2023-05-02T14:30:36.326Z,101303.00
2023-05-02T14:33:05.064Z,101313.00
2023-05-02T14:35:33.659Z,101318.00
2023-05-02T14:38:02.518Z,101316.00
2023-05-02T14:40:31.327Z,101318.00
2023-05-02T14:42:59.820Z,101324.00
2023-05-02T14:45:27.958Z,101320.00
2023-05-02T14:47:57.716Z,101336.00
2023-05-02T14:50:26.487Z,101327.00
2023-05-02T14:52:54.632Z,101324.00
2023-05-02T14:55:23.225Z,101331.00
2023-05-02T14:57:51.511Z,101324.00
2023-05-02T15:00:19.912Z,101330.00
2023-05-02T15:02:48.439Z,101330.00
2023-05-02T15:05:16.968Z,101331.00
2023-05-02T15:07:45.558Z,101319.00
2023-05-02T15:10:13.708Z,101332.00
2023-05-02T15:12:46.132Z,101328.00
2023-05-02T15:15:15.291Z,101330.00
2023-05-02T15:17:43.707Z,101326.00
2023-05-02T15:20:13.165Z,101333.00
2023-05-02T15:22:41.511Z,101334.00
2023-05-02T15:25:11.032Z,101335.00
2023-05-02T15:27:44.336Z,101337.00
2023-05-02T15:30:12.644Z,101338.00
2023-05-02T15:32:43.682Z,101339.00
2023-05-02T15:35:15.111Z,101339.00
2023-05-02T15:37:43.549Z,101341.00
2023-05-02T15:40:12.731Z,101350.00
2023-05-02T15:42:41.389Z,101349.00
2023-05-02T15:45:15.990Z,101351.00
2023-05-02T15:47:44.441Z,101355.00
2023-05-02T15:50:13.726Z,101362.00
2023-05-02T15:52:43.977Z,101361.00
2023-05-02T15:55:12.581Z,101363.00
2023-05-02T15:57:40.916Z,101362.00
2023-05-02T16:00:16.287Z,101360.00
2023-05-02T16:02:44.747Z,101379.00
2023-05-02T16:05:21.737Z,101381.00
2023-05-02T16:07:49.951Z,101381.00
2023-05-02T16:10:20.817Z,101384.00
2023-05-02T16:12:49.104Z,101391.00
2023-05-02T16:15:28.693Z,101394.00
2023-05-02T16:17:56.999Z,101400.00
2023-05-02T16:20:25.216Z,101398.00
2023-05-02T16:22:53.329Z,101397.00
2023-05-02T16:25:21.895Z,101400.00
2023-05-02T16:27:52.853Z,101403.00
2023-05-02T16:30:21.361Z,101402.00
2023-05-02T16:32:50.180Z,101409.00
2023-05-02T16:35:20.381Z,101404.00
2023-05-02T16:37:54.113Z,101403.00
2023-05-02T16:40:22.672Z,101413.00
2023-05-02T16:42:53.915Z,101410.00
2023-05-02T16:45:32.526Z,101405.00
2023-05-02T16:48:01.172Z,101415.00
2023-05-02T16:50:29.906Z,101414.00
2023-05-02T16:52:58.884Z,101418.00
2023-05-02T16:55:27.276Z,101415.00
2023-05-02T16:57:55.678Z,101417.00
2023-05-02T17:00:24.027Z,101414.00
2023-05-02T17:02:55.474Z,101429.00
2023-05-02T17:05:23.769Z,101427.00
2023-05-02T17:07:52.072Z,101429.00
2023-05-02T17:10:20.381Z,101432.00
2023-05-02T17:12:51.313Z,101435.00
2023-05-02T17:15:19.650Z,101435.00
2023-05-02T17:17:50.817Z,101434.00
2023-05-02T17:20:19.096Z,101432.00
2023-05-02T17:22:47.714Z,101442.00
2023-05-02T17:25:18.128Z,101444.00
2023-05-02T17:27:49.366Z,101448.00
2023-05-02T17:30:17.612Z,101448.00
2023-05-02T17:32:45.820Z,101441.00
2023-05-02T17:35:14.756Z,101446.00
2023-05-02T17:37:42.974Z,101436.00
2023-05-02T17:40:11.854Z,101446.00
2023-05-02T17:42:40.997Z,101456.00
2023-05-02T17:45:10.193Z,101447.00
2023-05-02T17:47:44.338Z,101451.00
2023-05-02T17:50:15.799Z,101447.00
2023-05-02T17:52:51.270Z,101462.00
2023-05-02T17:55:19.495Z,101461.00
2023-05-02T17:57:51.880Z,101456.00
2023-05-02T18:00:20.673Z,101463.00
2023-05-02T18:02:53.046Z,101467.00
2023-05-02T18:05:22.818Z,101470.00
2023-05-02T18:07:50.886Z,101480.00
2023-05-02T18:10:19.407Z,101469.00
2023-05-02T18:12:47.997Z,101467.00
2023-05-02T18:15:16.164Z,101478.00
2023-05-02T18:17:47.227Z,101484.00
2023-05-02T18:20:18.777Z,101482.00
2023-05-02T18:22:49.312Z,101486.00
2023-05-02T18:25:17.962Z,101488.00
2023-05-02T18:27:46.287Z,101491.00
2023-05-02T18:30:14.767Z,101488.00
2023-05-02T18:32:43.133Z,101487.00
2023-05-02T18:35:14.401Z,101486.00
2023-05-02T18:37:43.169Z,101498.00
2023-05-02T18:40:13.373Z,101488.00
2023-05-02T18:42:41.874Z,101494.00
2023-05-02T18:45:10.510Z,101501.00
2023-05-02T18:47:42.140Z,101503.00
2023-05-02T18:50:11.014Z,101504.00
2023-05-02T18:52:39.792Z,101501.00
2023-05-02T18:55:08.946Z,101500.00
2023-05-02T18:57:37.269Z,101501.00
2023-05-02T19:00:09.475Z,101496.00
2023-05-02T19:02:40.979Z,101496.00
2023-05-02T19:05:12.900Z,101500.00
2023-05-02T19:07:41.040Z,101509.00
2023-05-02T19:10:11.509Z,101510.00
2023-05-02T19:12:40.785Z,101513.00
2023-05-02T19:15:10.490Z,101523.00
2023-05-02T19:17:39.214Z,101516.00
2023-05-02T19:20:13.658Z,101522.00
2023-05-02T19:22:43.506Z,101523.00
2023-05-02T19:25:13.124Z,101522.00
2023-05-02T19:27:42.631Z,101527.00
2023-05-02T19:30:13.874Z,101531.00
2023-05-02T19:32:42.715Z,101535.00
2023-05-02T19:35:14.632Z,101542.00
2023-05-02T19:37:44.652Z,101545.00
2023-05-02T19:40:13.537Z,101551.00
2023-05-02T19:42:41.863Z,101545.00
2023-05-02T19:45:15.746Z,101543.00
2023-05-02T19:47:45.973Z,101539.00
2023-05-02T19:50:14.357Z,101541.00
2023-05-02T19:52:44.798Z,101553.00
2023-05-02T19:55:16.979Z,101555.00
2023-05-02T19:57:45.275Z,101560.00
2023-05-02T20:00:14.847Z,101558.00
2023-05-02T20:02:43.230Z,101554.00
2023-05-02T20:05:20.920Z,101563.00
2023-05-02T20:07:49.312Z,101558.00
2023-05-02T20:10:20.177Z,101563.00
2023-05-02T20:12:49.185Z,101574.00
2023-05-02T20:15:19.343Z,101573.00
2023-05-02T20:18:14.234Z,101569.00
2023-05-02T20:20:42.446Z,101576.00
2023-05-02T20:23:11.138Z,101574.00
2023-05-02T20:25:40.582Z,101583.00
2023-05-02T20:28:19.976Z,101573.00
2023-05-02T20:30:50.912Z,101573.00
2023-05-02T20:33:19.738Z,101580.00
2023-05-02T20:35:57.389Z,101578.00
2023-05-02T20:38:30.295Z,101584.00
2023-05-02T20:40:59.614Z,101579.00
2023-05-02T20:43:29.382Z,101577.00
2023-05-02T20:45:57.624Z,101581.00
2023-05-02T20:48:25.749Z,101586.00
2023-05-02T20:50:55.171Z,101581.00
2023-05-02T20:53:25.930Z,101581.00
2023-05-02T20:55:54.185Z,101587.00
2023-05-02T20:58:22.148Z,101594.00
2023-05-02T21:00:52.877Z,101585.00
2023-05-02T21:03:30.395Z,101593.00
2023-05-02T21:06:01.779Z,101596.00
2023-05-02T21:08:30.236Z,101600.00
2023-05-02T21:10:58.417Z,101596.00
2023-05-02T21:13:27.185Z,101595.00
2023-05-02T21:15:55.923Z,101597.00
2023-05-02T21:18:24.658Z,101603.00
2023-05-02T21:20:53.014Z,101601.00
2023-05-02T21:23:21.471Z,101596.00
2023-05-02T21:25:49.514Z,101603.00
2023-05-02T21:28:17.891Z,101616.00
2023-05-02T21:30:46.202Z,101604.00
2023-05-02T21:33:20.824Z,101609.00
2023-05-02T21:35:54.854Z,101617.00
2023-05-02T21:38:23.320Z,101617.00
2023-05-02T21:40:51.975Z,101615.00
2023-05-02T21:43:20.342Z,101617.00
2023-05-02T21:45:50.503Z,101619.00
2023-05-02T21:48:19.411Z,101620.00
2023-05-02T21:50:47.855Z,101619.00
2023-05-02T21:53:18.302Z,101622.00
2023-05-02T21:55:48.774Z,101629.00
2023-05-02T21:58:17.420Z,101630.00
2023-05-02T22:00:46.228Z,101623.00
2023-05-02T22:03:17.903Z,101629.00
2023-05-02T22:05:48.620Z,101639.00
2023-05-02T22:08:17.589Z,101630.00
2023-05-02T22:10:45.912Z,101631.00
2023-05-02T22:13:15.206Z,101636.00
2023-05-02T22:15:45.738Z,101630.00
2023-05-02T22:18:14.973Z,101633.00
2023-05-02T22:20:44.026Z,101636.00
2023-05-02T22:23:13.217Z,101634.00
2023-05-02T22:25:43.885Z,101636.00
2023-05-02T22:28:13.964Z,101643.00
2023-05-02T22:30:43.409Z,101636.00
2023-05-02T22:33:12.404Z,101639.00
2023-05-02T22:35:41.104Z,101638.00
2023-05-02T22:38:09.484Z,101637.00
2023-05-02T22:40:37.433Z,101641.00
2023-05-02T22:43:05.847Z,101647.00
2023-05-02T22:45:34.385Z,101643.00
2023-05-02T22:48:02.824Z,101641.00
2023-05-02T22:50:31.273Z,101642.00
2023-05-02T22:53:00.138Z,101646.00
2023-05-02T22:55:28.681Z,101635.00
2023-05-02T22:57:56.992Z,101634.00
2023-05-02T23:00:31.740Z,101636.00
2023-05-02T23:03:00.373Z,101634.00
2023-05-02T23:05:29.974Z,101637.00
2023-05-02T23:08:00.502Z,101636.00
2023-05-02T23:10:29.037Z,101640.00
2023-05-02T23:12:57.367Z,101646.00
2023-05-02T23:15:31.550Z,101644.00
2023-05-02T23:18:02.735Z,101636.00
2023-05-02T23:20:34.882Z,101643.00
2023-05-02T23:23:03.488Z,101643.00
2023-05-02T23:25:32.372Z,101647.00
2023-05-02T23:28:00.832Z,101644.00
2023-05-02T23:30:31.223Z,101645.00
2023-05-02T23:33:00.497Z,101650.00
2023-05-02T23:35:29.003Z,101653.00
2023-05-02T23:37:58.936Z,101640.00
2023-05-02T23:40:29.121Z,101639.00
2023-05-02T23:42:57.601Z,101649.00
2023-05-02T23:45:26.081Z,101645.00
2023-05-02T23:47:57.563Z,101641.00
2023-05-02T23:50:26.148Z,101642.00
2023-05-02T23:52:54.317Z,101640.00
2023-05-02T23:55:22.513Z,101638.00
2023-05-02T23:57:50.654Z,101646.00
